x

8419317 - Wells, Me (welm1) Weather Station

1:30 - Wed 29th Jun 2016 All times are EDT. -4 hours from GMT.

  • Wind
    5mph, 7mph gusts
  • Sea Temp 53°f
  • Air Temp 62°f
  • Sea Pressure 1009.9mb
  • 8419317 - Wells, Me
  • 8419317 - Wells, Me

More Historic Weather Station data

Upgrade to MSW Pro to gain access to the past 30 days of data for over 8000 Wavebouys and Weather Stations around the globe.

Join Pro

Comparision Forecast

View Surf forecast
   
mer. 06/29 1:30 5 7 mph 1009.9mb 53f 62f
1:24 5 6 mph 1010mb 53f 63f
1:18 5 7 mph 1010mb 53f 62f
1:12 7 8 mph 1009.9mb 53f 62f
1:06 7 8 mph 1009.9mb 53f 62f
1:00 7 9 mph 1010mb 52f 62f
12:54 6 7 mph 1010.1mb 52f 63f
12:48 6 7 mph 1010.1mb 52f 62f
12:42 6 8 mph 1010.2mb 52f 62f
12:36 6 7 mph 1010.3mb 52f 62f
12:30 6 8 mph 1010.4mb 52f 62f
12:24 7 9 mph 1010.5mb 52f 62f
12:18 7 9 mph 1010.5mb 52f 62f
12:12 5 7 mph 1010.6mb 52f 62f
12:06 3 5 mph 1010.7mb 52f 63f
12:00 1 3 mph 1010.7mb 52f 63f
11:54 3 6 mph 1010.7mb 52f 63f
11:48 6
mph
1010.5mb 52f 62f
11:42 3 5 mph 1010.8mb 52f 62f
11:36 2 3 mph 1010.8mb 52f 62f
11:30 2 5 mph 1010.7mb 52f 61f
11:24 3
mph
1010.7mb 52f 61f
11:18 1 2 mph 1010.8mb 52f 61f
11:12 2 3 mph 1010.8mb 52f 61f
11:06 2 6 mph 1010.9mb 52f 62f
11:00 6 9 mph 1010.8mb 51f 62f
10:54 8 11 mph 1010.9mb 51f 61f
10:48 9 10 mph 1010.9mb 51f 61f
10:42 7 8 mph 1010.9mb 51f 62f
10:36 7 9 mph 1010.9mb 51f 62f
10:30 8 11 mph 1010.9mb 51f 62f
10:24 9 11 mph 1011mb 51f 61f
10:18 9 13 mph 1011mb 51f 60f
10:12 10 14 mph 1011mb 51f 61f
10:06 13 14 mph 1011.1mb 50f 61f
10:00 11 13 mph 1011mb 50f 62f
9:54 11 13 mph 1011mb 51f 62f
9:48 9 13 mph 1011mb 50f 62f
9:42 10 13 mph 1011.1mb 50f 61f
9:36 8 10 mph 1011.1mb 50f 61f
9:30 10 13 mph 1011.1mb 50f 61f
9:24 8 9 mph 1011.1mb 50f 61f
9:18 9 11 mph 1011mb 50f 61f
9:12 10 11 mph 1011.1mb 50f 60f
9:06 9 10 mph 1011.1mb 50f 62f
9:00 9
mph
1011mb 50f 61f
8:54 8 9 mph 1011mb 49f 60f
8:48 8 9 mph 1011.1mb 49f 60f
8:42 9 10 mph 1011.1mb 49f 61f
8:36 8 9 mph 1011.1mb 49f 60f
8:30 7 8 mph 1011mb 49f 59f
8:24 7 10 mph 1011mb 49f 60f
8:18 10 14 mph 1011.1mb 49f 60f
8:12 9 11 mph 1011mb 49f 60f
8:06 8 9 mph 1010.9mb 49f 59f
8:00 6 8 mph 1010.9mb 49f 59f
7:54 3 5 mph 1011mb 49f 58f
7:48 2 5 mph 1011mb 49f 58f
7:42 5 6 mph 1011mb 49f 58f
7:36 6 8 mph 1010.9mb 49f 59f
7:30 6 7 mph 1010.9mb 49f 59f
7:24 3
mph
1010.8mb 49f 59f
7:18 3 5 mph 1010.8mb 50f 59f
7:12 5 6 mph 1010.8mb 50f 59f
7:06 6
mph
1010.8mb 49f 59f
7:00 6 7 mph 1010.8mb 49f 59f
6:54 6 8 mph 1010.8mb 49f 59f
6:48 6 8 mph 1010.9mb 49f 60f
6:42 7 9 mph 1010.9mb 49f 59f
6:36 7
mph
1010.9mb 49f 59f
6:30 6 7 mph 1011mb 49f 59f
6:24 5 8 mph 1011mb 49f 58f
6:18 7 9 mph 1011mb 49f 59f
6:12 8 10 mph 1010.9mb 49f 59f
6:06 8 9 mph 1010.9mb 49f 60f
6:00 7 9 mph 1010.9mb 49f 59f
5:54 8 11 mph 1011mb 49f 60f
5:48 8 9 mph 1011mb 49f 59f
5:42 6 7 mph 1011mb 49f 59f
5:36 8 9 mph 1010.9mb 49f 59f
5:30 8 10 mph 1010.9mb 49f 60f
5:24 10 13 mph 1011mb 49f 60f
5:18 9 10 mph 1011.1mb 49f 60f
5:12 7 10 mph 1011mb 49f 60f
5:06 9 11 mph 1010.9mb 49f 60f
5:00 9 11 mph 1011mb 49f 60f
4:54 8 9 mph 1011mb 49f 60f
4:48 7 10 mph 1010.9mb 49f 60f
4:42 8 9 mph 1011mb 49f 60f
4:36 6 8 mph 1011mb 49f 60f
4:30 6 7 mph 1011mb 49f 60f
4:24 5 6 mph 1010.9mb 49f 60f
4:18 5 6 mph 1011mb 49f 60f
4:12 3 6 mph 1011mb 49f 60f
4:06 5 6 mph 1011mb 49f 60f
4:00 3 5 mph 1011mb 49f 60f
3:54 3 5 mph 1011mb 50f 60f
3:48 1 3 mph 1011mb 50f 60f
3:42 1 5 mph 1011mb 51f 60f
3:36 3 6 mph 1011mb 52f 60f
3:30 5 6 mph 1011mb 53f 60f
3:24 5 6 mph 1011mb 54f 60f
3:18 5 6 mph 1011mb 55f 60f
3:12 5 6 mph 1011mb 56f 60f
3:06 5 6 mph 1011.1mb 56f 60f
3:00 6 7 mph 1011.2mb 56f 60f
2:54 5 7 mph 1011.3mb 56f 60f
2:48 3 5 mph 1011.3mb 56f 60f
2:42 2 3 mph 1011.4mb 56f 60f
2:36 1 3 mph 1011.4mb 56f 59f
2:30 2 5 mph 1011.4mb 56f 60f
2:24 3 5 mph 1011.4mb 56f 60f
2:18 3 5 mph 1011.5mb 56f 60f
2:12 5 9 mph 1011.6mb 56f 59f
2:06 6 13 mph 1011.6mb 56f 60f
2:00 1 2 mph 1011.5mb 56f 60f
1:54 1 3 mph 1011.5mb 56f 60f
1:48  -  mph 1011.6mb 56f 60f
1:42  -  mph 1011.6mb 55f 60f
1:36  -  mph 1011.6mb 55f 60f
1:30 3
mph
1011.7mb 55f 62f
1:24  -  3 mph 1011.7mb 55f 62f
1:18 2 3 mph 1011.8mb 55f 62f
1:12 3 5 mph 1011.9mb 55f 61f
1:06 3 5 mph 1011.9mb 55f 61f
1:00 3 5 mph 1012mb 55f 62f
12:54 3 5 mph 1012mb 55f 63f
12:48 2
mph
1012mb 55f 63f
12:42 2 3 mph 1012.1mb 54f 63f
12:36 1 3 mph 1012.1mb 54f 64f
12:30 2 6 mph 1012.1mb 54f 64f
12:24 2 9 mph 1012.1mb 54f 63f
12:18 8 10 mph 1012.2mb 54f 62f
12:12 8 9 mph 1012.2mb 54f 62f
12:06 5 6 mph 1012.1mb 54f 63f
12:00 2 3 mph 1012.1mb 54f 62f
mar. 06/28 11:54 3
mph
1012.1mb 54f 62f
11:48  -  mph 1012.2mb 54f -
11:42  -  mph 1012.2mb 54f -
11:36  -  mph 1012.3mb 54f -
11:30 8 9 mph 1012.4mb 54f 62f
11:24 7 8 mph 1012.5mb 54f 62f
11:18 1 3 mph 1012.5mb 54f 62f
11:12 3
mph
1012.5mb 54f 63f
11:06  -  2 mph 1012.5mb 54f 64f
11:00  -  mph 1012.6mb 53f -
10:54  -  mph 1012.7mb 53f -
10:48 8 9 mph - 53f -
10:42 8 9 mph - 53f -
10:36 9 11 mph - 53f -
10:30  -  mph 1012.7mb 53f 62f
10:24  -  mph 1012.7mb 53f 64f
10:18  -  mph 1012.7mb 53f -
10:12  -  mph 1012.8mb 52f -
10:06  -  mph 1012.9mb 52f -
10:00  -  mph 1012.8mb 52f -
9:54  -  mph 1012.7mb 52f -
9:48  -  mph 1012.8mb 53f -
9:42  -  mph 1012.8mb 53f -
9:36  -  mph 1012.8mb 53f -
9:30  -  mph 1012.7mb 53f -
9:24  -  mph 1012.7mb 53f -
9:18  -  mph 1012.7mb 53f 62f
9:12  -  mph 1012.6mb 53f 62f
9:06  -  mph 1012.7mb 52f 62f
9:00  -  mph - 52f 62f
8:54  -  mph - 52f 62f
8:48  -  mph 1012.6mb 52f -
8:42  -  mph 1012.6mb 52f -
8:36  -  mph 1012.6mb 52f -
8:30  -  mph - 51f -
8:24  -  mph - 51f -
8:18  -  mph 1012.7mb 51f 62f
8:12  -  mph 1012.7mb 51f 63f
8:06  -  mph 1012.7mb 51f 63f
8:00  -  mph 1012.6mb 51f -
7:54  -  mph 1012.7mb 51f -
7:48  -  mph - 51f -
7:42  -  mph - 51f -
7:36  -  mph - 51f -
7:30  -  mph - 51f -
7:24  -  mph - 51f -
7:18  -  mph 1012.6mb 50f -
7:12  -  mph 1012.6mb 50f -
7:06  -  mph 1012.6mb 50f -
7:00  -  mph - 50f -
6:54  -  mph - 50f -
6:48  -  mph - 50f -
6:42  -  mph - 50f -
6:36  -  mph - 50f -
6:30  -  mph 1012.4mb - -
6:24  -  mph 1012.3mb - -
6:18  -  mph - 50f -
6:12  -  mph - 50f -
6:06  -  mph - 50f -
6:00  -  mph 1012.3mb 50f 63f
5:54  -  mph 1012.4mb 50f 64f
5:48  -  mph - 50f 64f
5:42  -  mph - 50f 64f
5:36  -  mph - 50f 63f
5:30 13 15 mph 1012.5mb 50f 63f
5:24 13 16 mph 1012.6mb 50f 63f
5:18 10 13 mph 1012.6mb 50f 63f
5:12 11 15 mph 1012.7mb 50f 63f
5:06 14 16 mph 1012.8mb 50f 64f
5:00 14 17 mph 1012.8mb 50f 64f
4:54 14 16 mph 1012.8mb 50f 64f
4:48 13 15 mph 1012.8mb 50f 64f
4:42 13 14 mph 1013mb 50f 63f
4:36 13 14 mph 1013.1mb 50f 64f
4:30 13 15 mph 1013.1mb 50f 64f
4:24 14 16 mph 1013.1mb 50f 64f
4:18 15 17 mph 1013.1mb 50f 64f
4:12 15 18 mph 1013.1mb 50f 64f
4:06 16 18 mph 1013.2mb 50f 64f
4:00 15 17 mph 1013.2mb 50f 63f
3:54 14 15 mph 1013.3mb 50f 63f
3:48 14 15 mph 1013.2mb 50f 64f
3:42 14 16 mph 1013.2mb 51f 64f
3:36 14 16 mph 1013.1mb 51f 64f
3:30 16 18 mph 1013.2mb 51f 65f
3:24 16 18 mph 1013.2mb 51f 65f
3:18 16 18 mph 1013.3mb 51f 65f
3:12 16 18 mph 1013.3mb 52f 64f
3:06 14 17 mph 1013.4mb 53f 64f
3:00 14 16 mph 1013.5mb 53f 64f
2:54 13 17 mph 1013.5mb 55f 63f
2:48 14 16 mph 1013.7mb 56f 63f
2:42 13 15 mph 1013.8mb 56f 62f
2:36 13 16 mph 1013.8mb 56f 62f
2:30 15 16 mph 1013.9mb 56f 63f
2:24 16 18 mph 1013.9mb 56f 63f
2:18 14 18 mph 1014mb 56f 63f
2:12 15 17 mph 1014mb 56f 62f
2:06 11 13 mph 1013.9mb 56f 62f
2:00 8 10 mph 1013.9mb 56f 62f
1:54 9 13 mph 1014mb 56f 61f
1:48 10 11 mph 1014mb 56f 62f
1:42 9 11 mph 1014mb 56f 61f
1:36 10 11 mph 1014mb 56f 61f
1:30 11 13 mph 1014mb 56f 61f
1:24 10 14 mph 1014.1mb 56f 62f
1:18 10 13 mph 1014.1mb 56f 62f
1:12 10 14 mph 1014.1mb 56f 61f
1:06 10 14 mph 1014.2mb 56f 61f
1:00 11 14 mph 1014.3mb 56f 62f
12:54 13 14 mph 1014.5mb 56f 62f
12:48 11 13 mph 1014.5mb 56f 63f
12:42 11 14 mph 1014.6mb 55f 63f
12:36 11 14 mph 1014.6mb 55f 63f
12:30 11 13 mph 1014.6mb 55f 64f
12:24 10 11 mph 1014.7mb 55f 64f
12:18 10 11 mph 1014.7mb 55f 64f
12:12 7 8 mph 1014.8mb 55f 64f
12:06 6 8 mph 1014.8mb 55f 64f
12:00 7 8 mph 1014.8mb 55f 63f
11:54 8 11 mph 1014.8mb 55f 63f
11:48 8 11 mph 1014.9mb 55f 62f
11:42 10 11 mph 1014.9mb 55f 61f
11:36 9 13 mph 1014.9mb 54f 61f
11:30 9 13 mph 1014.9mb 54f 61f
11:24 13 16 mph 1014.9mb 54f 61f
11:18 15 17 mph 1014.8mb 54f 61f
11:12 15 18 mph 1014.8mb 54f 61f
11:06 15 18 mph 1014.8mb 54f 61f
11:00 13 15 mph 1014.7mb 55f 62f
10:54 13 14 mph 1014.7mb 55f 62f
10:48 11 14 mph 1014.7mb 55f 62f
10:42 11 14 mph 1014.7mb 55f 63f
10:36 9 11 mph 1014.7mb 54f 62f
10:30 10 11 mph 1014.7mb 54f 63f
10:24 8 9 mph 1014.8mb 54f 63f
10:18 8 9 mph 1014.8mb 54f 63f
10:12 7 9 mph 1014.8mb 54f 66f
10:06 8 9 mph 1014.9mb 54f 66f
10:00 7 10 mph 1014.9mb 54f 66f
9:54 10 13 mph 1014.9mb 53f 66f
9:48  -  mph 1015mb 53f 65f
9:42  -  mph 1015mb 53f 64f
9:36  -  mph 1015mb 53f 63f
9:30 8 9 mph 1015mb 53f 63f
9:24 7 8 mph 1015mb 53f 62f
9:18 8 13 mph 1015mb 53f 61f
9:12 11 14 mph 1015mb 53f 60f
9:06 11 14 mph 1015mb 53f 60f
9:00 10 13 mph 1015mb 53f 60f
8:54 10 11 mph 1015.1mb 52f 60f
8:48 9 11 mph 1015.1mb 52f 60f
8:42 10 11 mph 1015mb 52f 61f
8:36 10 11 mph 1015.1mb 52f 61f
8:30 10 13 mph 1015.1mb 52f 61f
8:24 10 11 mph 1015mb 52f 60f
8:18 8 10 mph 1015mb 52f 60f
8:12 10
mph
1015mb 51f 60f
8:06 9 10 mph 1015mb 51f 59f
8:00 3 7 mph 1014.9mb 51f 60f
7:54 2 3 mph 1014.9mb 51f 60f
7:48 2 3 mph 1014.9mb 51f 60f
7:42 2 6 mph 1014.9mb 51f 60f
7:36 6 9 mph 1014.8mb 51f 59f
7:30 9 10 mph 1014.8mb 51f 58f
7:24 8 9 mph 1014.8mb 51f 59f
7:18 8 9 mph 1014.7mb 51f 59f
7:12 8 10 mph 1014.7mb 51f 58f
7:06 5 6 mph 1014.7mb 51f 59f
7:00 3 7 mph 1014.7mb 51f -
6:54 6 8 mph 1014.7mb 51f -
6:48 7 9 mph 1014.7mb 51f -
6:42 2 6 mph 1014.7mb 51f -
6:36 6 7 mph 1014.6mb 51f -
6:30 5 6 mph 1014.5mb 51f 58f
6:24 6 7 mph 1014.5mb 51f 58f
6:18 7
mph
1014.5mb 51f 58f
6:12 6 7 mph 1014.4mb 51f 59f
6:06 7 8 mph 1014.4mb 51f 59f
6:00 6
mph
1014.3mb 51f 58f
5:54 6
mph
1014.2mb 51f 58f
5:48 3 5 mph 1014.2mb 51f 58f
5:42  -  1 mph 1014.2mb 51f 58f
5:36  -  2 mph 1014.3mb 51f 58f
5:30 1 3 mph 1014.3mb 51f 58f
5:24 3 5 mph 1014.2mb 51f 58f
5:18 3 5 mph 1014.2mb 51f 59f
5:12 5
mph
1014.2mb 51f 58f
5:06 3 5 mph 1014.2mb 51f 59f
5:00 1 2 mph 1014.2mb 51f 59f
4:54  -  2 mph 1014.1mb 51f 59f
4:48 1 2 mph 1014mb 51f 59f
4:42 1 3 mph 1014mb 51f 59f
4:36 2
mph
1013.9mb 51f 59f
4:30  -  1 mph 1013.9mb 51f 59f
4:24  -  1 mph 1013.9mb 51f 59f
4:18  -  mph 1013.9mb 51f 60f
4:12  -  2 mph 1013.8mb 51f 60f
4:06 2 3 mph 1013.8mb 51f 59f
4:00 2 5 mph 1013.8mb 51f 58f
3:54 3 6 mph 1013.8mb 51f 58f
3:48 5 6 mph 1013.8mb 51f 58f
3:42 3 6 mph 1013.8mb 51f 58f
3:36 7 8 mph 1013.9mb 51f 58f
3:30 8 10 mph 1013.9mb 51f 59f
3:24 9 11 mph 1014mb 51f 59f
3:18 8 10 mph 1014mb 51f 59f
3:12 9 11 mph 1013.9mb 51f 60f
3:06 8 9 mph 1013.9mb 51f 61f
3:00 7 9 mph 1013.9mb 52f 61f
2:54 8 9 mph 1014mb 52f 60f
2:48 8 10 mph 1014.1mb - -
2:42 9 11 mph 1014.1mb - -
2:36 11 14 mph 1014.1mb - -
2:30 11 13 mph 1014.1mb 56f 62f
2:24 10 13 mph 1014mb 56f 62f
2:18 10 11 mph 1014mb 57f 62f
2:12 10 13 mph 1014mb 59f 62f
2:06 11 14 mph 1014.1mb 62f 62f
2:00 11 14 mph 1014.1mb 63f 63f
1:54 11 14 mph 1014.1mb 63f 65f
1:48 10 13 mph - - -
1:42 10 11 mph - - -
1:36 11 13 mph - - -
1:30 10 14 mph 1014mb 63f 66f
1:24 10 13 mph 1014mb 63f 66f
1:18 10 14 mph 1014.1mb 63f 65f
1:12 10 13 mph 1014.1mb 63f 65f
1:06 10 15 mph 1014.1mb 63f 65f
1:00 11 13 mph 1014.2mb 63f 64f
12:54 11 14 mph 1014.3mb 63f 64f
12:48 13 15 mph 1014.4mb 63f 63f
12:42 14 18 mph 1014.4mb 63f 62f
12:36 15 17 mph 1014.5mb 63f 62f
12:30 15 17 mph 1014.5mb 63f 62f
12:24 14 16 mph 1014.4mb 63f 62f
12:18 14 16 mph 1014.4mb 63f 62f
12:12 14 16 mph 1014.5mb 63f 62f
12:06 14 15 mph 1014.5mb 63f 62f
12:00 13 14 mph 1014.5mb 62f 62f
lun. 06/27 11:54 11 14 mph 1014.5mb 62f 63f
11:48  -  mph 1014.5mb 62f 62f
11:42  -  mph 1014.5mb 62f 62f
11:36  -  mph 1014.6mb 62f 62f
11:30 13 15 mph 1014.5mb 62f 63f
11:24 14 16 mph 1014.5mb 62f 63f
11:18 15 17 mph 1014.5mb 62f 63f
11:12 15 17 mph 1014.5mb 62f 64f
11:06 15 17 mph 1014.6mb 61f 63f
11:00  -  mph - 61f 63f
10:54  -  mph - 62f 64f
10:48  -  mph 1014.7mb 62f -
10:42  -  mph 1014.7mb 62f -
10:36  -  mph 1014.8mb 61f -
10:30  -  mph 1014.8mb 61f -
10:24  -  mph 1014.8mb 61f -
10:18  -  mph 1014.8mb - 63f
10:12  -  mph 1014.8mb - 64f
10:06  -  mph 1014.8mb - 64f
10:00  -  mph - 60f -
9:54  -  mph - 60f -
9:48  -  mph 1014.7mb - -
9:42  -  mph 1014.6mb - -
9:36  -  mph 1014.6mb - -
9:30  -  mph 1014.5mb 59f -
9:24  -  mph 1014.4mb 59f -
9:18  -  mph 1014.4mb 59f -
9:12  -  mph 1014.4mb 59f -
9:06  -  mph 1014.3mb 59f -
9:00  -  mph 1014.2mb 59f 65f
8:54  -  mph 1014.2mb 59f 66f
8:48  -  mph 1014.1mb 59f -
8:42  -  mph 1014mb 59f -
8:36  -  mph 1014mb 59f -
8:30  -  mph 1014mb 59f -
8:24  -  mph 1013.9mb 59f -
8:18  -  mph 1013.9mb 58f -
8:12  -  mph 1013.9mb 58f -
8:06  -  mph 1013.9mb 58f -
8:00  -  mph 1013.9mb 58f -
7:54  -  mph 1013.9mb 58f -
7:48  -  mph 1013.8mb - -
7:42  -  mph 1013.8mb - -
7:36  -  mph 1013.8mb - -
7:30  -  mph - 57f -
7:24  -  mph - 57f -
7:18  -  mph 1013.9mb 57f -
7:12  -  mph 1013.8mb 57f -
7:06  -  mph 1013.8mb 56f -
7:00  -  mph 1013.9mb 56f -
6:54  -  mph 1013.8mb 56f -
6:48  -  mph 1013.8mb 57f -
6:42  -  mph 1013.7mb 57f -
6:36  -  mph 1013.7mb 57f -
6:30  -  mph 1013.7mb 56f -
6:24  -  mph 1013.8mb 56f -
6:18  -  mph - 56f 69f
6:12  -  mph - 56f 69f
6:06  -  mph - 56f 67f
6:00  -  mph 1013.7mb 56f -
5:54  -  mph 1013.7mb 56f -
5:48  -  mph 1013.8mb 56f 67f
5:42  -  mph 1013.8mb 56f 67f
5:36  -  mph 1013.8mb 56f 67f
5:30 20 22 mph 1013.9mb 56f 67f
5:24 20 22 mph 1014mb 56f 68f
5:18 20 24 mph 1014mb 56f 68f
5:12 21 24 mph 1014mb 56f 68f
5:06 21 24 mph 1014mb 56f 68f
5:00 22 26 mph 1014mb 56f 68f
4:54 22 29 mph 1014.1mb 56f 68f
4:48 23 28 mph 1014.1mb 56f 68f
4:42 22 28 mph 1014.1mb 56f 68f
4:36 23 29 mph 1014.2mb 56f 68f
4:30 22 26 mph 1014.2mb 56f 68f
4:24 23 28 mph 1014.3mb 56f 69f
4:18 23 29 mph 1014.3mb 56f 69f
4:12 24 29 mph 1014.3mb 56f 69f
4:06 23 28 mph 1014.3mb 56f 69f
4:00 22 25 mph 1014.3mb 56f 68f
3:54 22 28 mph 1014.4mb 56f 69f
3:48 24 28 mph 1014.4mb 56f 69f
3:42 22 26 mph 1014.4mb 56f 68f
3:36 22 29 mph 1014.5mb 56f 68f
3:30 24 28 mph 1014.5mb 56f 68f
3:24 23 30 mph 1014.6mb 56f 68f
3:18 25 31 mph 1014.6mb 56f 68f
3:12 24 28 mph 1014.6mb 56f 68f
3:06 22 29 mph 1014.6mb 56f 68f
3:00 25 31 mph 1014.7mb 57f 68f
2:54 24 30 mph 1014.8mb 57f 69f
2:48  -  mph 1014.8mb 57f 69f
2:42  -  mph 1014.8mb 57f 69f
2:36  -  mph 1014.9mb 58f 69f
2:30 24 29 mph 1015mb 58f 68f
2:24 23 29 mph 1015mb 59f 68f
2:18 24 29 mph 1015mb 60f 68f
2:12 24 29 mph 1015.1mb 62f 68f
2:06 23 28 mph 1015.1mb 62f 69f
2:00 22 28 mph 1015mb 63f 69f
1:54 24 28 mph 1015.1mb 63f 69f
1:48 23 26 mph 1015mb 64f 69f
1:42 23 28 mph 1015.1mb 64f 68f
1:36 24 31 mph 1015.2mb 64f 68f
1:30 26 30 mph 1015.3mb 64f 68f
1:24 23 29 mph 1015.2mb 64f 67f
1:18 23 28 mph 1015.2mb 64f 67f
1:12 23 26 mph 1015.2mb 64f 68f
1:06 23 29 mph 1015.3mb 63f 67f
1:00 24 29 mph 1015.4mb 63f 67f
12:54 23 28 mph 1015.4mb 63f 67f
12:48 23 28 mph 1015.4mb 63f 68f
12:42 24 28 mph 1015.5mb 63f 67f
12:36 22 25 mph 1015.6mb 63f 67f
12:30 20 24 mph 1015.6mb 63f 69f
12:24 21 24 mph 1015.5mb 63f 69f
12:18 17 22 mph 1015.6mb 63f 67f
12:12 18 22 mph 1015.8mb 62f 67f
12:06 20 25 mph 1015.8mb 62f 66f
12:00 20 24 mph 1015.9mb 62f 66f
11:54 18 22 mph 1015.9mb 61f 66f
11:48 17 22 mph 1015.9mb 61f 67f
11:42 18 23 mph 1015.9mb 60f 67f
11:36 18 21 mph 1015.9mb 60f 67f
11:30 17 20 mph 1016mb 60f 70f
11:24 15 18 mph 1016mb 60f 69f
11:18 16 18 mph 1016mb 60f 69f
11:12 15 18 mph 1016mb 60f 69f
11:06 16 18 mph 1016.1mb 60f 68f
11:00 14 16 mph 1016mb 59f 69f
10:54 11 14 mph 1016mb 59f 69f
10:48 13 15 mph 1016.1mb 59f 70f
10:42 14 17 mph 1016.2mb 59f 70f
10:36 15 17 mph 1016.2mb 59f 71f
10:30 10 16 mph 1016.1mb 59f 78f
10:24 9 15 mph 1016.2mb 59f 76f
10:18 9 10 mph 1016.2mb 59f 73f
10:12 8 10 mph 1016.2mb 59f 73f
10:06 9 10 mph 1016.3mb 59f 71f
10:00 9 11 mph 1016.4mb 59f 67f
9:54 11 15 mph 1016.5mb 59f 65f
9:48 11 14 mph 1016.5mb 59f 67f
9:42 9 11 mph 1016.5mb 59f 69f
9:36 8 13 mph 1016.5mb 59f 71f
9:30 8 13 mph 1016.5mb 59f 73f
9:24 2 8 mph 1016.5mb 59f 74f
9:18 6 10 mph 1016.5mb 59f 73f
9:12 7 9 mph 1016.6mb 59f 69f
9:06 6 8 mph 1016.8mb 59f 72f
9:00 6 9 mph 1016.7mb 58f 72f
8:54 7 10 mph 1016.8mb 58f 69f
8:48 8 13 mph 1016.9mb 58f 72f
8:42 8 13 mph 1017mb 58f 71f
8:36 9 14 mph 1017mb 58f 71f
8:30 8 11 mph 1017mb 58f 71f
8:24 7 10 mph 1017mb 58f 71f
8:18 7 9 mph 1017mb 58f 66f
8:12 7 9 mph 1016.9mb 58f 67f
8:06 7 9 mph 1016.9mb 58f 67f
8:00 8 11 mph 1016.9mb 58f 65f
7:54 11 13 mph 1017mb 58f 64f
7:48 11 14 mph 1017.2mb 58f 64f
7:42 11 13 mph 1017.2mb 58f 63f
7:36 10 13 mph 1017.2mb 58f 63f
7:30 11 14 mph 1017.3mb 58f 63f
7:24 13 15 mph 1017.3mb 57f 62f
7:18 11 15 mph 1017.4mb 57f 63f
7:12 11 14 mph 1017.4mb 57f 63f
7:06 11 13 mph 1017.4mb 57f 63f
7:00 10 11 mph 1017.4mb 57f 64f
6:54 9 10 mph 1017.3mb 57f 64f
6:48 6 7 mph 1017.2mb 57f 64f
6:42 5
mph
1017.2mb 57f 64f
6:36 3 5 mph 1017.1mb 57f 63f
6:30 3 5 mph 1017.1mb 57f 62f
6:24 3 6 mph 1017.2mb 57f 62f
6:18 6 8 mph 1017.2mb 57f 62f
6:12 8 9 mph 1017.3mb 57f 62f
6:06 6 7 mph 1017.3mb 57f 62f
6:00 5 8 mph 1017.3mb 57f 62f
5:54 7 8 mph 1017.4mb 57f 61f
5:48 2 5 mph 1017.4mb 56f 60f
5:42 2
mph
1017.4mb 56f 58f
5:36 2
mph
1017.3mb 56f 58f
5:30 2
mph
1017.2mb 56f 58f
5:24 1 2 mph 1017.2mb 56f 58f
5:18 2
mph
1017.2mb 56f 57f
5:12 2
mph
1017.2mb 57f 57f
5:06 2
mph
1017.1mb 56f 57f
5:00 1 2 mph 1017mb 56f 57f
4:54 1 2 mph 1017mb 56f 57f
4:48 1 2 mph 1017mb 56f 58f
4:42  -  1 mph 1016.9mb 56f 58f
4:36  -  1 mph 1016.9mb 56f 58f
4:30  -  1 mph 1016.9mb 56f 58f
4:24 1 2 mph 1016.8mb 57f 58f
4:18  -  2 mph 1016.8mb 57f 57f
4:12 1 2 mph 1016.8mb 57f 58f
4:06  -  2 mph 1016.8mb 57f 58f
4:00  -  mph 1016.9mb 56f 58f
3:54  -  1 mph 1016.9mb 56f 58f
3:48  -  2 mph 1016.8mb 56f 59f
3:42  -  2 mph 1016.8mb 56f 59f
3:36  -  3 mph 1016.9mb 57f 59f
3:30 2 3 mph 1016.9mb 57f 59f
3:24 2
mph
1017mb 57f 58f
3:18 2 3 mph 1016.9mb 57f 58f
3:12  -  3 mph 1016.8mb 57f 60f
3:06 5 6 mph 1016.8mb 57f 60f
3:00 1 2 mph 1016.9mb 57f 58f
2:54 2
mph
1016.9mb 57f 58f
2:48 2 3 mph 1016.9mb 57f -
2:42 3
mph
1017mb 57f -
2:36 3 5 mph 1017mb 57f -
2:30 3
mph
1017.1mb 57f 58f
2:24 1 2 mph 1017.1mb 58f 59f
2:18 2 5 mph 1017.1mb 58f 59f
2:12 3 5 mph 1017.1mb 58f 59f
2:06  -  1 mph 1017.1mb 58f 59f
2:00 1 3 mph 1017.3mb 58f 59f
1:54 2 3 mph 1017.3mb 58f 59f
1:48 2 3 mph 1017.3mb - -
1:42 3
mph
1017.2mb - -
1:36 1 2 mph 1017.2mb - -
1:30 1
mph
1017.2mb 60f 60f
1:24  -  2 mph 1017.3mb 61f 60f
1:18 2
mph
1017.3mb 62f 60f
1:12 2 3 mph 1017.3mb 63f 60f
1:06 3 5 mph 1017.4mb 63f 60f
1:00 2
mph
1017.4mb 63f 60f
12:54 1 2 mph 1017.5mb 63f 59f
12:48 1 2 mph 1017.5mb 63f 60f
12:42  -  mph 1017.6mb 63f 60f
12:36  -  1 mph 1017.6mb 63f 61f
12:30  -  1 mph 1017.6mb 63f 61f
12:24 1
mph
1017.6mb 63f 60f
12:18  -  1 mph 1017.6mb 63f 60f
12:12  -  1 mph 1017.7mb 63f 60f
12:06 1
mph
1017.8mb 63f 60f
12:00  -  1 mph 1017.8mb 63f 61f
dim. 06/26 11:54  -  1 mph 1017.8mb 63f 61f
11:48  -  1 mph 1017.9mb 63f 60f
11:42  -  1 mph 1017.9mb 63f 61f
11:36  -  1 mph 1017.9mb 63f 61f
11:30  -  2 mph 1017.9mb 63f 61f
11:24 1 2 mph 1018mb 63f 61f
11:18 1 2 mph 1018mb 63f 62f
11:12  -  1 mph 1018mb 63f 63f
11:06  -  1 mph 1018mb 63f 63f
11:00  -  mph 1018.1mb 63f -
10:54  -  mph 1018.2mb 63f -
10:48  -  mph - 63f -
10:42  -  mph - 62f -
10:36  -  mph - 62f -
10:30  -  mph 1018.4mb 62f -
10:24  -  mph 1018.4mb 62f -
10:18  -  mph 1018.4mb 62f 64f
10:12  -  mph 1018.4mb 62f 64f
10:06  -  mph 1018.5mb 62f 64f
10:00  -  mph - 62f -
9:54  -  mph - 62f -
9:48  -  mph - 62f -
9:42  -  mph - 62f -
9:36  -  mph - 62f -
9:30  -  mph 1018.4mb 62f -
9:24  -  mph 1018.4mb 61f -
9:18  -  mph 1018.4mb 61f -
9:12  -  mph 1018.4mb 61f -
9:06  -  mph 1018.5mb 61f -
9:00  -  mph 1018.5mb 61f -
8:54  -  mph 1018.4mb 61f -
8:48  -  mph - 61f -
8:42  -  mph - 61f -
8:36  -  mph - 60f -
8:30  -  mph - 60f -
8:24  -  mph - 60f -
8:18  -  mph 1018.7mb 60f 64f
8:12  -  mph 1018.7mb 60f 65f
8:06  -  mph 1018.8mb 60f 65f
8:00  -  mph - 60f -
7:54  -  mph - 60f -
7:48  -  mph - 59f -
7:42  -  mph - 59f -
7:36  -  mph - 59f -
7:30 7 9 mph 1019.1mb - -
7:24 7 9 mph 1019.2mb - -
7:18  -  mph 1019.3mb 59f 67f
7:12  -  mph 1019.3mb 59f 67f
7:06  -  mph 1019.4mb 58f 67f
7:00  -  mph 1019.4mb 58f -
6:54  -  mph 1019.4mb 58f -
6:48  -  mph - 58f -
6:42  -  mph - 58f -
6:36  -  mph - 57f -
6:30  -  mph - 57f -
6:24  -  mph - 57f -
6:18  -  mph 1019.6mb 56f 67f
6:12  -  mph 1019.6mb 56f 67f
6:06  -  mph 1019.8mb 56f 67f
6:00  -  mph 1020mb 56f -
5:54  -  mph 1020mb 56f -
5:48  -  mph 1020.2mb 56f -
5:42  -  mph 1020.3mb 56f -
5:36  -  mph 1020.3mb 55f -
5:30 10 11 mph 1020.3mb 55f 66f
5:24 8 9 mph 1020.5mb 55f 66f
5:18 8 9 mph 1020.5mb 55f 66f
5:12 7 10 mph 1020.5mb 55f 66f
5:06 7 10 mph 1020.6mb 55f 66f
5:00 6 7 mph 1020.7mb 55f 66f
4:54 6 8 mph 1020.8mb 55f 66f
4:48 6 10 mph 1020.8mb 55f 66f
4:42 7 10 mph 1020.8mb 55f 65f
4:36 7 8 mph 1020.8mb 56f 66f
4:30 7 9 mph 1020.8mb 56f 66f
4:24 6 8 mph 1020.9mb 56f 66f
4:18 6 8 mph 1020.8mb 56f 66f
4:12 7 8 mph 1020.8mb 56f 66f
4:06 7 10 mph 1020.8mb 56f 66f
4:00 9 10 mph 1020.8mb 56f 66f
3:54 7 10 mph 1020.8mb 56f 66f
3:48 8 10 mph 1021.1mb 56f 65f
3:42 9 11 mph 1021.1mb 56f 66f
3:36 7 10 mph 1021.1mb 56f 66f
3:30 9 13 mph 1021.1mb 56f 66f
3:24 11 13 mph 1021.2mb 56f 65f
3:18 11 14 mph 1021.3mb 56f 65f
3:12 10 14 mph 1021.3mb 56f 66f
3:06 10 14 mph 1021.3mb 56f 65f
3:00 11 14 mph 1021.3mb 57f 66f
2:54 10 16 mph 1021.3mb 57f 66f
2:48 13 16 mph 1021.4mb 57f 66f
2:42 14 16 mph 1021.4mb 57f 66f
2:36 14 17 mph 1021.4mb 57f 66f
2:30 14 17 mph 1021.3mb 57f 65f
2:24 13 15 mph 1021.3mb 57f 66f
2:18 11 16 mph 1021.4mb 58f 65f
2:12 13 17 mph 1021.4mb 58f 65f
2:06 13 15 mph 1021.4mb 58f 65f
2:00 13 15 mph 1021.6mb 58f 65f
1:54 11 14 mph 1021.6mb 58f 65f
1:48 13 15 mph 1021.6mb 58f 65f
1:42 10 14 mph 1021.5mb 58f 65f
1:36 10 14 mph 1021.6mb 58f 65f
1:30 10 14 mph 1021.7mb 58f 65f
1:24 10 15 mph 1021.8mb 58f 65f
1:18 11 14 mph 1021.8mb 58f 64f
1:12 11 14 mph 1021.8mb 58f 64f
1:06 11 14 mph 1021.7mb 58f 64f
1:00 11 14 mph 1021.7mb 58f 65f
12:54 11 14 mph 1021.9mb 58f 65f
12:48 10 14 mph 1022mb 58f 65f
12:42 10 15 mph 1021.9mb 58f 65f
12:36 11 15 mph 1021.9mb 57f 65f
12:30 10 14 mph 1021.9mb 57f 65f
12:24 8 10 mph 1021.9mb 57f 65f
12:18 8 9 mph 1021.9mb 57f 65f
12:12 6 8 mph 1021.9mb 57f 66f
12:06 6 8 mph 1022mb 57f 66f
12:00 6 10 mph 1022.1mb 57f 66f
11:54 6 8 mph 1022.1mb 57f 66f
11:48 7 8 mph 1022.1mb 57f 66f
11:42 6 9 mph 1022.2mb 57f 65f
11:36 7 10 mph 1022.2mb 57f 65f
11:30 7 11 mph 1022.2mb 57f 65f
11:24 6 9 mph 1022.3mb 57f 66f
11:18 5 9 mph 1022.2mb 57f 65f
11:12 7 10 mph 1022.2mb 57f 65f
11:06 8 11 mph 1022.2mb 57f 65f
11:00 9 11 mph 1022.1mb 57f 65f
10:54 8 10 mph 1022.2mb 57f 65f
10:48 9 10 mph 1022.2mb 56f 65f
10:42 7 9 mph 1022.1mb 56f 65f
10:36 7 9 mph 1022mb 56f 65f
10:30 7 9 mph 1021.9mb 56f 66f
10:24 7 10 mph 1021.9mb 56f 66f
10:18 7 8 mph 1021.9mb 56f 66f
10:12 7 8 mph 1021.8mb 56f 66f
10:06 6 7 mph 1021.8mb 56f 66f
10:00 7 9 mph 1022mb 56f 65f
9:54 7 8 mph 1022mb 56f 66f
9:48 6 7 mph 1021.9mb 56f 66f
9:42 7 9 mph 1022.1mb 56f 65f
9:36 8 9 mph 1022.2mb 56f 65f
9:30 8 9 mph 1022.3mb 56f 65f
9:24 7 8 mph 1022.3mb 56f 66f
9:18 6 7 mph 1022.3mb 56f 66f
9:12 6
mph
1022.3mb 56f 68f
9:06 2 3 mph 1022.3mb 56f 69f
9:00 2 3 mph 1022.4mb 56f 69f
8:54 2 3 mph 1022.5mb 56f 68f
8:48 3
mph
1022.5mb 56f 68f
8:42 3
mph
1022.5mb 56f 67f
8:36 2 3 mph 1022.5mb 56f 67f
8:30 2 3 mph 1022.6mb 56f 65f
8:24 3 5 mph 1022.7mb 56f 65f
8:18 3 5 mph 1022.7mb 56f 65f
8:12 5
mph
1022.6mb 56f 65f
8:06 2 3 mph 1022.5mb 56f 65f
8:00 2 3 mph 1022.6mb 55f 63f
7:54 3 5 mph 1022.6mb 55f 63f
7:48 5
mph
1022.5mb 55f 64f
7:42 3 5 mph 1022.5mb 55f 65f
7:36 3 5 mph 1022.4mb 55f 65f
7:30 2 3 mph 1022.4mb 55f 65f
7:24 2
mph
1022.3mb 55f 64f
7:18 2 3 mph 1022.4mb 55f 64f
7:12 1 2 mph 1022.4mb 55f 63f
7:06 2
mph
1022.3mb 55f 64f
7:00  -  mph 1022.4mb 55f 62f
6:54  -  1 mph 1022.2mb 55f 62f
6:48  -  1 mph 1022.2mb 55f 60f
6:42 1
mph
1022.1mb 55f 58f
6:36  -  1 mph 1022mb 55f 58f
6:30  -  2 mph 1022.1mb 55f 57f
6:24 1 2 mph 1022.1mb 55f 56f
6:18  -  1 mph 1022.1mb 55f 57f
6:12  -  1 mph 1022.2mb 55f 56f
6:06  -  1 mph 1022.3mb 55f 55f
6:00 1 2 mph 1022.3mb 55f 54f
5:54  -  1 mph 1022.4mb 55f 54f
5:48  -  2 mph 1022.4mb 54f 53f
5:42 2
mph
1022.4mb 54f 53f
5:36  -  1 mph 1022.4mb 54f 53f
5:30  -  1 mph 1022.5mb 54f 52f
5:24 1 3 mph 1022.5mb 54f 51f
5:18 2 3 mph 1022.5mb 54f 51f
5:12 2
mph
1022.5mb 54f 51f
5:06 1 2 mph 1022.6mb 54f 52f
5:00 1
mph
1022.5mb 54f 52f
4:54  -  1 mph 1022.5mb 54f 51f
4:48 1 2 mph 1022.5mb 54f 52f
4:42 2
mph
1022.6mb 54f 51f
4:36 1
mph
1022.6mb 54f 52f
4:30 1 2 mph 1022.7mb 54f 52f
4:24 2
mph
1022.8mb 54f 51f
4:18 2 3 mph 1022.8mb 54f 51f
4:12 2
mph
1022.8mb 54f 52f
4:06 1 2 mph 1022.9mb 54f 52f
4:00 1
mph
1022.9mb 54f 52f
3:54  -  2 mph 1022.9mb 54f 52f
3:48 1 2 mph 1022.8mb 54f 52f
3:42 1
mph
1022.6mb 54f 52f
3:36 2
mph
1022.6mb 54f 52f
3:30 1 2 mph 1022.6mb 54f -
3:24 2 3 mph 1022.7mb 54f -
3:18 2
mph
1022.6mb 54f 52f
3:12 2 3 mph 1022.5mb 54f 52f
3:06 3
mph
1022.6mb 54f 52f
3:00 3
mph
1022.5mb 54f 53f
2:54 2
mph
1022.4mb 54f 53f
2:48 1 2 mph 1022.4mb 54f -
2:42 1 2 mph 1022.3mb 55f -
2:36 2 3 mph 1022.4mb 55f -
2:30 3
mph
1022.3mb 55f 52f
2:24 2
mph
1022.2mb 55f 53f
2:18 2
mph
1022mb 55f 53f
2:12 2
mph
1021.9mb 55f 53f
2:06  -  1 mph 1021.9mb 55f 54f
2:00  -  mph 1021.8mb 55f 54f
1:54  -  mph 1021.8mb 55f 54f
1:48  -  mph 1021.8mb 55f 54f
1:42  -  mph 1021.7mb 55f 54f
1:36  -  mph 1021.8mb 55f 54f
1:30 1
mph
1021.9mb 55f 54f
1:24 1 2 mph 1022mb 55f 54f
1:18 2
mph
1022mb 55f 54f
1:12 2
mph
1022mb 55f 55f
1:06 2
mph
1022.1mb 55f 55f
1:00 2
mph
1022.1mb 55f 55f
12:54 2
mph
1022.2mb 56f 55f
12:48 2 3 mph 1022.4mb 56f 55f
12:42 2
mph
1022.4mb 57f 56f
12:36 2
mph
1022.4mb 58f 56f
12:30  -  2 mph 1022.3mb 58f 57f
12:24 2 3 mph 1022.3mb 60f 57f
12:18 2
mph
1022.4mb 61f 56f
12:12 2
mph
1022.4mb 62f 55f
12:06 2
mph
1022.4mb 62f 56f
12:00  -  1 mph 1022.3mb 62f 56f
sam. 06/25 11:54  -  1 mph 1022.3mb 62f 56f
11:48  -  mph 1022.4mb 62f 56f
11:42  -  mph 1022.4mb 62f 56f
11:36  -  mph 1022.4mb 62f 56f
11:30 2
mph
1022.4mb 62f 56f
11:24  -  1 mph 1022.4mb 62f 56f
11:18  -  1 mph 1022.4mb 62f 57f
11:12  -  2 mph 1022.5mb 62f 56f
11:06 1 2 mph 1022.6mb 62f 56f
11:00  -  mph 1022.6mb 62f 57f
10:54  -  mph 1022.7mb 62f 57f
10:48  -  mph 1022.6mb 62f -
10:42  -  mph 1022.5mb 62f -
10:36  -  mph 1022.5mb 62f -
10:30  -  mph 1022.5mb 62f 57f
10:24  -  mph 1022.5mb 62f 57f
10:18  -  mph - 62f 58f
10:12  -  mph - 62f 58f
10:06  -  mph - 62f 59f
10:00  -  mph - 62f 59f
9:54  -  mph - 62f 60f
9:48  -  mph - 62f -
9:42  -  mph - 62f -
9:36  -  mph - 62f -
9:30  -  mph 1022.6mb 62f -
9:24  -  mph 1022.6mb 62f -
9:18  -  mph 1022.6mb 62f 62f
9:12  -  mph 1022.5mb 62f 62f
9:06  -  mph 1022.4mb 61f 62f
9:00  -  mph 1022.2mb 61f -
8:54  -  mph 1022.1mb 61f -
8:48  -  mph 1022.1mb 61f -
8:42  -  mph 1022mb 61f -
8:36  -  mph 1022mb 61f -
8:30 7
mph
- - -
8:24 7 8 mph - - -
8:18  -  mph 1021.9mb 61f 62f
8:12  -  mph 1021.9mb 61f 63f
8:06  -  mph 1021.9mb 61f 63f
8:00  -  mph - 61f -
7:54  -  mph - 60f -
7:48  -  mph - 60f -
7:42  -  mph - 60f -
7:36  -  mph - 60f -
7:30  -  mph 1021.6mb 60f -
7:24  -  mph 1021.6mb 60f -
7:18  -  mph 1021.6mb 60f 65f
7:12  -  mph 1021.6mb 60f 65f
7:06  -  mph 1021.6mb 60f 65f
7:00  -  mph 1021.6mb 60f -
6:54  -  mph 1021.6mb 59f -
6:48  -  mph - 59f -
6:42  -  mph - 59f -
6:36  -  mph - 59f -
6:30  -  mph 1021.5mb 59f -
6:24  -  mph 1021.5mb 59f -